sensor_id;sensor_type;location;lat;lon;timestamp;pressure;altitude;pressure_sealevel;temperature;humidity
61914;BME280;50095;53.336;-1.488;2022-09-30T00:00:03;99289.04;;;16.30;58.86
61914;BME280;50095;53.336;-1.488;2022-09-30T00:02:30;99289.95;;;15.84;58.70
61914;BME280;50095;53.336;-1.488;2022-09-30T00:04:57;99293.48;;;16.28;58.84
61914;BME280;50095;53.336;-1.488;2022-09-30T00:07:24;99296.96;;;16.06;58.80
61914;BME280;50095;53.336;-1.488;2022-09-30T00:09:52;99293.99;;;16.26;58.84
61914;BME280;50095;53.336;-1.488;2022-09-30T00:12:20;99293.53;;;16.20;58.97
61914;BME280;50095;53.336;-1.488;2022-09-30T00:14:47;99289.77;;;16.22;59.03
61914;BME280;50095;53.336;-1.488;2022-09-30T00:17:15;99288.53;;;15.99;59.01
61914;BME280;50095;53.336;-1.488;2022-09-30T00:19:41;99290.47;;;16.00;58.91
61914;BME280;50095;53.336;-1.488;2022-09-30T00:22:09;99288.32;;;15.98;59.00
61914;BME280;50095;53.336;-1.488;2022-09-30T00:24:36;99289.10;;;16.12;59.16
61914;BME280;50095;53.336;-1.488;2022-09-30T00:27:03;99289.42;;;16.14;59.16
61914;BME280;50095;53.336;-1.488;2022-09-30T00:29:30;99285.61;;;15.62;59.20
61914;BME280;50095;53.336;-1.488;2022-09-30T00:31:58;99283.98;;;15.92;59.16
61914;BME280;50095;53.336;-1.488;2022-09-30T00:34:25;99283.04;;;15.89;59.23
61914;BME280;50095;53.336;-1.488;2022-09-30T00:36:54;99288.34;;;16.09;59.16
61914;BME280;50095;53.336;-1.488;2022-09-30T00:39:23;99291.19;;;16.11;59.11
61914;BME280;50095;53.336;-1.488;2022-09-30T00:41:52;99292.79;;;15.89;59.17
61914;BME280;50095;53.336;-1.488;2022-09-30T00:44:53;99290.77;;;16.14;59.15
61914;BME280;50095;53.336;-1.488;2022-09-30T00:47:31;99293.65;;;16.10;59.12
61914;BME280;50095;53.336;-1.488;2022-09-30T00:50:04;99295.27;;;16.13;59.06
61914;BME280;50095;53.336;-1.488;2022-09-30T00:52:32;99293.30;;;15.85;59.10
61914;BME280;50095;53.336;-1.488;2022-09-30T00:55:03;99289.69;;;16.08;59.10
61914;BME280;50095;53.336;-1.488;2022-09-30T00:57:31;99288.91;;;15.56;59.14
61914;BME280;50095;53.336;-1.488;2022-09-30T01:00:01;99288.28;;;15.55;59.11
61914;BME280;50095;53.336;-1.488;2022-09-30T01:02:29;99292.37;;;16.04;59.06
61914;BME280;50095;53.336;-1.488;2022-09-30T01:04:56;99291.39;;;15.96;59.23
61914;BME280;50095;53.336;-1.488;2022-09-30T01:07:24;99283.92;;;15.96;59.23
61914;BME280;50095;53.336;-1.488;2022-09-30T01:09:52;99276.65;;;16.15;59.25
61914;BME280;50095;53.336;-1.488;2022-09-30T01:12:21;99278.52;;;15.91;59.27
61914;BME280;50095;53.336;-1.488;2022-09-30T01:14:52;99277.74;;;15.67;59.25
61914;BME280;50095;53.336;-1.488;2022-09-30T01:17:34;99280.87;;;15.88;59.31
61914;BME280;50095;53.336;-1.488;2022-09-30T01:20:18;99282.97;;;15.86;59.31
61914;BME280;50095;53.336;-1.488;2022-09-30T01:23:01;99286.74;;;15.81;59.41
61914;BME280;50095;53.336;-1.488;2022-09-30T01:26:10;99286.91;;;15.80;59.50
61914;BME280;50095;53.336;-1.488;2022-09-30T01:29:07;99288.94;;;15.62;59.33
61914;BME280;50095;53.336;-1.488;2022-09-30T01:31:48;99295.69;;;15.83;59.40
61914;BME280;50095;53.336;-1.488;2022-09-30T01:34:27;99297.13;;;15.57;59.52
61914;BME280;50095;53.336;-1.488;2022-09-30T01:37:07;99296.92;;;15.73;59.58
61914;BME280;50095;53.336;-1.488;2022-09-30T01:39:45;99298.19;;;15.75;59.59
61914;BME280;50095;53.336;-1.488;2022-09-30T01:42:22;99294.74;;;15.74;59.65
61914;BME280;50095;53.336;-1.488;2022-09-30T01:44:57;99291.04;;;15.49;59.69
61914;BME280;50095;53.336;-1.488;2022-09-30T01:47:31;99292.06;;;15.73;59.62
61914;BME280;50095;53.336;-1.488;2022-09-30T01:50:05;99294.03;;;15.69;59.73
61914;BME280;50095;53.336;-1.488;2022-09-30T01:52:38;99289.32;;;15.72;59.74
61914;BME280;50095;53.336;-1.488;2022-09-30T01:55:14;99290.90;;;15.54;59.72
61914;BME280;50095;53.336;-1.488;2022-09-30T01:57:49;99293.11;;;15.73;59.72
61914;BME280;50095;53.336;-1.488;2022-09-30T02:00:21;99288.31;;;15.95;59.77
61914;BME280;50095;53.336;-1.488;2022-09-30T02:02:51;99285.30;;;15.75;59.78
61914;BME280;50095;53.336;-1.488;2022-09-30T02:05:25;99283.71;;;15.68;59.87
61914;BME280;50095;53.336;-1.488;2022-09-30T02:07:56;99284.57;;;15.69;59.87
61914;BME280;50095;53.336;-1.488;2022-09-30T02:10:29;99278.12;;;15.68;59.85
61914;BME280;50095;53.336;-1.488;2022-09-30T02:13:03;99277.05;;;15.68;59.85
61914;BME280;50095;53.336;-1.488;2022-09-30T02:15:35;99278.64;;;15.65;59.82
61914;BME280;50095;53.336;-1.488;2022-09-30T02:18:09;99280.68;;;15.64;59.83
61914;BME280;50095;53.336;-1.488;2022-09-30T02:20:42;99276.90;;;15.67;59.78
61914;BME280;50095;53.336;-1.488;2022-09-30T02:23:15;99272.52;;;15.67;59.71
61914;BME280;50095;53.336;-1.488;2022-09-30T02:25:47;99266.79;;;15.62;59.75
61914;BME280;50095;53.336;-1.488;2022-09-30T02:28:21;99257.45;;;15.61;59.80
61914;BME280;50095;53.336;-1.488;2022-09-30T02:30:51;99252.79;;;15.64;59.80
61914;BME280;50095;53.336;-1.488;2022-09-30T02:33:25;99244.13;;;15.59;59.90
61914;BME280;50095;53.336;-1.488;2022-09-30T02:35:58;99238.64;;;15.62;59.87
61914;BME280;50095;53.336;-1.488;2022-09-30T02:38:30;99241.64;;;15.62;59.87
61914;BME280;50095;53.336;-1.488;2022-09-30T02:41:02;99240.96;;;15.61;59.91
61914;BME280;50095;53.336;-1.488;2022-09-30T02:43:32;99240.87;;;15.57;60.04
61914;BME280;50095;53.336;-1.488;2022-09-30T02:46:06;99237.99;;;15.62;59.92
61914;BME280;50095;53.336;-1.488;2022-09-30T02:48:41;99237.16;;;15.60;60.02
61914;BME280;50095;53.336;-1.488;2022-09-30T02:51:14;99233.43;;;15.61;60.06
61914;BME280;50095;53.336;-1.488;2022-09-30T02:53:50;99229.12;;;15.40;59.97
61914;BME280;50095;53.336;-1.488;2022-09-30T02:56:23;99230.62;;;15.65;59.90
61914;BME280;50095;53.336;-1.488;2022-09-30T02:58:54;99227.34;;;15.65;59.84
61914;BME280;50095;53.336;-1.488;2022-09-30T03:01:23;99224.14;;;15.67;59.77
61914;BME280;50095;53.336;-1.488;2022-09-30T03:03:53;99223.22;;;15.62;59.84
61914;BME280;50095;53.336;-1.488;2022-09-30T03:06:23;99219.74;;;15.61;59.86
61914;BME280;50095;53.336;-1.488;2022-09-30T03:08:51;99215.69;;;15.59;59.86
61914;BME280;50095;53.336;-1.488;2022-09-30T03:11:20;99213.99;;;15.80;59.85
61914;BME280;50095;53.336;-1.488;2022-09-30T03:14:04;99210.72;;;15.78;59.87
61914;BME280;50095;53.336;-1.488;2022-09-30T03:16:49;99210.03;;;15.57;59.83
61914;BME280;50095;53.336;-1.488;2022-09-30T03:19:33;99210.44;;;15.79;59.79
61914;BME280;50095;53.336;-1.488;2022-09-30T03:22:17;99209.40;;;15.57;59.73
61914;BME280;50095;53.336;-1.488;2022-09-30T03:24:58;99210.53;;;15.54;59.80
61914;BME280;50095;53.336;-1.488;2022-09-30T03:27:33;99208.46;;;15.53;59.80
61914;BME280;50095;53.336;-1.488;2022-09-30T03:30:06;99204.76;;;15.52;59.78
61914;BME280;50095;53.336;-1.488;2022-09-30T03:32:48;99200.45;;;15.46;59.89
61914;BME280;50095;53.336;-1.488;2022-09-30T03:35:26;99197.93;;;15.46;59.84
61914;BME280;50095;53.336;-1.488;2022-09-30T03:38:00;99192.40;;;15.49;59.80
61914;BME280;50095;53.336;-1.488;2022-09-30T03:40:35;99186.81;;;15.46;59.90
61914;BME280;50095;53.336;-1.488;2022-09-30T03:43:09;99183.22;;;15.44;59.94
61914;BME280;50095;53.336;-1.488;2022-09-30T03:45:44;99179.50;;;15.42;60.01
61914;BME280;50095;53.336;-1.488;2022-09-30T03:48:15;99174.44;;;15.18;60.10
61914;BME280;50095;53.336;-1.488;2022-09-30T03:50:44;99169.87;;;15.45;60.05
61914;BME280;50095;53.336;-1.488;2022-09-30T03:53:12;99165.00;;;15.48;60.03
61914;BME280;50095;53.336;-1.488;2022-09-30T03:55:45;99164.41;;;15.38;60.19
61914;BME280;50095;53.336;-1.488;2022-09-30T03:58:14;99160.46;;;15.42;60.17
61914;BME280;50095;53.336;-1.488;2022-09-30T04:00:46;99154.18;;;15.49;60.08
61914;BME280;50095;53.336;-1.488;2022-09-30T04:03:14;99148.40;;;15.47;60.07
61914;BME280;50095;53.336;-1.488;2022-09-30T04:05:42;99140.48;;;15.23;60.02
61914;BME280;50095;53.336;-1.488;2022-09-30T04:08:09;99135.79;;;15.44;60.12
61914;BME280;50095;53.336;-1.488;2022-09-30T04:10:38;99141.26;;;15.65;60.20
61914;BME280;50095;53.336;-1.488;2022-09-30T04:13:05;99145.09;;;15.65;60.21
61914;BME280;50095;53.336;-1.488;2022-09-30T04:15:33;99149.25;;;15.45;60.10
61914;BME280;50095;53.336;-1.488;2022-09-30T04:18:01;99146.54;;;15.47;60.17
61914;BME280;50095;53.336;-1.488;2022-09-30T04:20:29;99140.95;;;15.47;60.18
61914;BME280;50095;53.336;-1.488;2022-09-30T04:22:57;99135.88;;;15.45;60.15
61914;BME280;50095;53.336;-1.488;2022-09-30T04:25:26;99132.07;;;15.50;60.04
61914;BME280;50095;53.336;-1.488;2022-09-30T04:27:53;99134.63;;;15.50;60.12
61914;BME280;50095;53.336;-1.488;2022-09-30T04:30:21;99132.05;;;15.52;60.11
61914;BME280;50095;53.336;-1.488;2022-09-30T04:32:48;99130.21;;;15.55;60.07
61914;BME280;50095;53.336;-1.488;2022-09-30T04:35:15;99126.40;;;15.55;60.06
61914;BME280;50095;53.336;-1.488;2022-09-30T04:37:42;99123.69;;;15.54;60.05
61914;BME280;50095;53.336;-1.488;2022-09-30T04:40:11;99123.10;;;15.54;60.03
61914;BME280;50095;53.336;-1.488;2022-09-30T04:42:38;99121.69;;;15.78;59.98
61914;BME280;50095;53.336;-1.488;2022-09-30T04:45:07;99120.65;;;15.52;60.01
61914;BME280;50095;53.336;-1.488;2022-09-30T04:47:34;99116.57;;;15.52;59.99
61914;BME280;50095;53.336;-1.488;2022-09-30T04:50:02;99108.78;;;15.51;59.97
61914;BME280;50095;53.336;-1.488;2022-09-30T04:52:29;99104.01;;;15.52;59.92
61914;BME280;50095;53.336;-1.488;2022-09-30T04:54:56;99099.87;;;15.56;59.85
61914;BME280;50095;53.336;-1.488;2022-09-30T04:57:24;99100.61;;;15.50;59.93
61914;BME280;50095;53.336;-1.488;2022-09-30T04:59:50;99097.94;;;15.55;59.78
61914;BME280;50095;53.336;-1.488;2022-09-30T05:02:19;99090.71;;;15.47;59.91
61914;BME280;50095;53.336;-1.488;2022-09-30T05:04:46;99080.77;;;15.49;59.94
61914;BME280;50095;53.336;-1.488;2022-09-30T05:07:13;99074.50;;;15.48;59.94
61914;BME280;50095;53.336;-1.488;2022-09-30T05:09:40;99066.00;;;15.51;59.84
61914;BME280;50095;53.336;-1.488;2022-09-30T05:12:07;99060.12;;;15.72;59.86
61914;BME280;50095;53.336;-1.488;2022-09-30T05:14:35;99057.15;;;15.44;59.95
61914;BME280;50095;53.336;-1.488;2022-09-30T05:17:02;99051.04;;;15.49;59.84
61914;BME280;50095;53.336;-1.488;2022-09-30T05:19:29;99047.68;;;15.50;59.83
61914;BME280;50095;53.336;-1.488;2022-09-30T05:21:56;99045.76;;;15.47;59.85
61914;BME280;50095;53.336;-1.488;2022-09-30T05:24:24;99043.13;;;15.51;59.75
61914;BME280;50095;53.336;-1.488;2022-09-30T05:26:51;99040.93;;;15.70;59.81
61914;BME280;50095;53.336;-1.488;2022-09-30T05:29:18;99035.06;;;15.71;59.79
61914;BME280;50095;53.336;-1.488;2022-09-30T05:31:45;99030.47;;;15.47;59.83
61914;BME280;50095;53.336;-1.488;2022-09-30T05:34:12;99022.24;;;15.45;59.81
61914;BME280;50095;53.336;-1.488;2022-09-30T05:36:40;99017.54;;;15.39;59.97
61914;BME280;50095;53.336;-1.488;2022-09-30T05:39:08;99013.24;;;15.46;59.81
61914;BME280;50095;53.336;-1.488;2022-09-30T05:41:36;99011.93;;;15.45;59.85
61914;BME280;50095;53.336;-1.488;2022-09-30T05:44:04;99005.66;;;15.44;59.84
61914;BME280;50095;53.336;-1.488;2022-09-30T05:46:32;99005.04;;;14.94;59.86
61914;BME280;50095;53.336;-1.488;2022-09-30T05:48:59;99002.59;;;15.46;59.75
61914;BME280;50095;53.336;-1.488;2022-09-30T05:51:26;99003.19;;;15.96;59.73
61914;BME280;50095;53.336;-1.488;2022-09-30T05:53:54;99004.37;;;15.66;59.84
61914;BME280;50095;53.336;-1.488;2022-09-30T05:56:22;99006.95;;;15.67;59.79
61914;BME280;50095;53.336;-1.488;2022-09-30T05:58:49;99001.51;;;15.39;59.89
61914;BME280;50095;53.336;-1.488;2022-09-30T06:01:16;98999.53;;;15.45;59.74
61914;BME280;50095;53.336;-1.488;2022-09-30T06:03:44;98995.49;;;15.43;59.67
61914;BME280;50095;53.336;-1.488;2022-09-30T06:06:12;98993.14;;;15.43;59.57
61914;BME280;50095;53.336;-1.488;2022-09-30T06:08:40;98989.59;;;15.44;59.44
61914;BME280;50095;53.336;-1.488;2022-09-30T06:11:08;98989.15;;;15.51;59.24
61914;BME280;50095;53.336;-1.488;2022-09-30T06:13:36;98989.05;;;15.48;59.28
61914;BME280;50095;53.336;-1.488;2022-09-30T06:16:04;98980.81;;;15.76;59.16
61914;BME280;50095;53.336;-1.488;2022-09-30T06:18:31;98976.33;;;15.54;59.13
61914;BME280;50095;53.336;-1.488;2022-09-30T06:21:02;98976.86;;;15.58;59.01
61914;BME280;50095;53.336;-1.488;2022-09-30T06:23:30;98972.03;;;15.84;58.99
61914;BME280;50095;53.336;-1.488;2022-09-30T06:25:58;98968.30;;;15.66;58.91
61914;BME280;50095;53.336;-1.488;2022-09-30T06:28:25;98966.88;;;15.68;58.86
61914;BME280;50095;53.336;-1.488;2022-09-30T06:30:52;98971.80;;;15.76;58.70
61914;BME280;50095;53.336;-1.488;2022-09-30T06:33:20;98969.25;;;15.85;58.57
61914;BME280;50095;53.336;-1.488;2022-09-30T06:35:49;98963.58;;;15.90;58.48
61914;BME280;50095;53.336;-1.488;2022-09-30T06:38:17;98953.50;;;16.03;58.19
61914;BME280;50095;53.336;-1.488;2022-09-30T06:40:44;98945.79;;;16.10;58.01
61914;BME280;50095;53.336;-1.488;2022-09-30T06:43:12;98937.33;;;15.98;57.92
61914;BME280;50095;53.336;-1.488;2022-09-30T06:45:39;98930.26;;;16.04;57.76
61914;BME280;50095;53.336;-1.488;2022-09-30T06:48:06;98922.30;;;16.09;57.59
61914;BME280;50095;53.336;-1.488;2022-09-30T06:50:34;98914.89;;;16.35;57.47
61914;BME280;50095;53.336;-1.488;2022-09-30T06:53:03;98912.35;;;16.42;57.28
61914;BME280;50095;53.336;-1.488;2022-09-30T06:55:31;98904.68;;;16.23;57.27
61914;BME280;50095;53.336;-1.488;2022-09-30T06:57:58;98903.03;;;16.30;57.14
61914;BME280;50095;53.336;-1.488;2022-09-30T07:00:25;98904.40;;;16.55;57.03
61914;BME280;50095;53.336;-1.488;2022-09-30T07:02:54;98903.35;;;16.13;56.85
61914;BME280;50095;53.336;-1.488;2022-09-30T07:05:22;98894.70;;;16.42;56.79
61914;BME280;50095;53.336;-1.488;2022-09-30T07:07:49;98891.03;;;16.21;56.70
61914;BME280;50095;53.336;-1.488;2022-09-30T07:10:16;98888.65;;;16.28;56.57
61914;BME280;50095;53.336;-1.488;2022-09-30T07:12:47;98892.08;;;16.35;56.46
61914;BME280;50095;53.336;-1.488;2022-09-30T07:15:15;98885.32;;;16.37;56.35
61914;BME280;50095;53.336;-1.488;2022-09-30T07:17:42;98879.13;;;16.38;56.27
61914;BME280;50095;53.336;-1.488;2022-09-30T07:20:09;98880.62;;;16.40;56.29
61914;BME280;50095;53.336;-1.488;2022-09-30T07:22:37;98884.86;;;16.34;56.33
61914;BME280;50095;53.336;-1.488;2022-09-30T07:25:04;98878.95;;;16.66;56.24
61914;BME280;50095;53.336;-1.488;2022-09-30T07:27:32;98873.30;;;16.59;56.32
61914;BME280;50095;53.336;-1.488;2022-09-30T07:30:00;98884.07;;;16.37;56.16
61914;BME280;50095;53.336;-1.488;2022-09-30T07:32:27;98882.27;;;16.32;56.23
61914;BME280;50095;53.336;-1.488;2022-09-30T07:34:55;98880.30;;;16.59;56.28
61914;BME280;50095;53.336;-1.488;2022-09-30T07:37:23;98879.00;;;16.35;56.23
61914;BME280;50095;53.336;-1.488;2022-09-30T07:39:50;98873.66;;;16.12;56.72
61914;BME280;50095;53.336;-1.488;2022-09-30T07:42:18;98862.77;;;16.07;56.98
61914;BME280;50095;53.336;-1.488;2022-09-30T07:44:51;98861.16;;;15.77;58.27
61914;BME280;50095;53.336;-1.488;2022-09-30T07:47:19;98852.65;;;16.11;58.80
61914;BME280;50095;53.336;-1.488;2022-09-30T07:49:46;98848.66;;;15.85;58.94
61914;BME280;50095;53.336;-1.488;2022-09-30T07:52:14;98847.80;;;16.06;58.81
61914;BME280;50095;53.336;-1.488;2022-09-30T07:54:41;98846.00;;;16.11;59.11
61914;BME280;50095;53.336;-1.488;2022-09-30T07:57:09;98839.86;;;16.18;58.51
61914;BME280;50095;53.336;-1.488;2022-09-30T07:59:38;98839.82;;;16.75;58.32
61914;BME280;50095;53.336;-1.488;2022-09-30T08:02:10;98843.39;;;16.56;58.15
61914;BME280;50095;53.336;-1.488;2022-09-30T08:04:38;98840.47;;;16.59;58.11
61914;BME280;50095;53.336;-1.488;2022-09-30T08:07:05;98837.75;;;16.90;57.60
61914;BME280;50095;53.336;-1.488;2022-09-30T08:09:32;98829.89;;;17.34;56.37
61914;BME280;50095;53.336;-1.488;2022-09-30T08:12:01;98811.89;;;17.92;55.47
61914;BME280;50095;53.336;-1.488;2022-09-30T08:14:29;98805.57;;;17.55;55.08
61914;BME280;50095;53.336;-1.488;2022-09-30T08:16:56;98804.81;;;17.67;54.85
61914;BME280;50095;53.336;-1.488;2022-09-30T08:19:25;98788.47;;;17.88;54.47
61914;BME280;50095;53.336;-1.488;2022-09-30T08:21:52;98787.19;;;17.99;54.13
61914;BME280;50095;53.336;-1.488;2022-09-30T08:24:20;98790.92;;;18.18;53.80
61914;BME280;50095;53.336;-1.488;2022-09-30T08:26:48;98787.51;;;18.26;53.64
61914;BME280;50095;53.336;-1.488;2022-09-30T08:29:15;98785.40;;;18.31;53.51
61914;BME280;50095;53.336;-1.488;2022-09-30T08:31:42;98780.95;;;18.01;53.75
61914;BME280;50095;53.336;-1.488;2022-09-30T08:34:11;98786.85;;;18.23;53.63
61914;BME280;50095;53.336;-1.488;2022-09-30T08:36:38;98783.53;;;18.40;53.30
61914;BME280;50095;53.336;-1.488;2022-09-30T08:39:05;98778.72;;;18.31;53.40
61914;BME280;50095;53.336;-1.488;2022-09-30T08:41:47;98780.36;;;17.81;54.32
61914;BME280;50095;53.336;-1.488;2022-09-30T08:44:30;98785.24;;;17.11;55.56
61914;BME280;50095;53.336;-1.488;2022-09-30T08:47:07;98778.84;;;17.58;55.71
61914;BME280;50095;53.336;-1.488;2022-09-30T08:49:46;98774.67;;;17.18;55.94
61914;BME280;50095;53.336;-1.488;2022-09-30T08:52:19;98766.00;;;17.54;56.22
61914;BME280;50095;53.336;-1.488;2022-09-30T08:54:52;98764.65;;;17.06;56.12
61914;BME280;50095;53.336;-1.488;2022-09-30T08:57:21;98756.49;;;17.54;56.18
61914;BME280;50095;53.336;-1.488;2022-09-30T08:59:54;98746.40;;;16.96;56.29
61914;BME280;50095;53.336;-1.488;2022-09-30T09:02:25;98746.17;;;17.26;56.23
61914;BME280;50095;53.336;-1.488;2022-09-30T09:04:57;98740.41;;;16.98;56.09
61914;BME280;50095;53.336;-1.488;2022-09-30T09:07:37;98737.49;;;16.90;56.26
61914;BME280;50095;53.336;-1.488;2022-09-30T09:10:16;98738.02;;;17.28;56.10
61914;BME280;50095;53.336;-1.488;2022-09-30T09:12:54;98724.94;;;17.33;56.02
61914;BME280;50095;53.336;-1.488;2022-09-30T09:15:33;98721.80;;;16.90;56.32
61914;BME280;50095;53.336;-1.488;2022-09-30T09:18:19;98719.45;;;17.28;56.02
61914;BME280;50095;53.336;-1.488;2022-09-30T09:20:55;98709.41;;;17.06;56.17
61914;BME280;50095;53.336;-1.488;2022-09-30T09:23:29;98694.60;;;17.23;56.49
61914;BME280;50095;53.336;-1.488;2022-09-30T09:25:58;98677.07;;;17.30;55.67
61914;BME280;50095;53.336;-1.488;2022-09-30T09:28:32;98658.97;;;17.85;54.53
61914;BME280;50095;53.336;-1.488;2022-09-30T09:31:02;98655.95;;;18.15;53.65
61914;BME280;50095;53.336;-1.488;2022-09-30T09:33:32;98652.38;;;18.35;53.25
61914;BME280;50095;53.336;-1.488;2022-09-30T09:36:11;98646.63;;;18.32;53.34
61914;BME280;50095;53.336;-1.488;2022-09-30T09:38:53;98646.50;;;18.06;53.30
61914;BME280;50095;53.336;-1.488;2022-09-30T09:41:31;98650.21;;;18.56;52.76
61914;BME280;50095;53.336;-1.488;2022-09-30T09:44:08;98648.77;;;18.11;52.72
61914;BME280;50095;53.336;-1.488;2022-09-30T09:46:43;98640.65;;;18.52;52.67
61914;BME280;50095;53.336;-1.488;2022-09-30T09:49:28;98617.57;;;18.62;52.41
61914;BME280;50095;53.336;-1.488;2022-09-30T09:52:13;98601.58;;;18.51;52.03
61914;BME280;50095;53.336;-1.488;2022-09-30T09:54:47;98586.85;;;18.91;51.76
61914;BME280;50095;53.336;-1.488;2022-09-30T09:57:16;98581.13;;;18.87;51.60
61914;BME280;50095;53.336;-1.488;2022-09-30T09:59:55;98577.81;;;18.57;51.32
61914;BME280;50095;53.336;-1.488;2022-09-30T10:02:25;98583.45;;;18.70;51.50
61914;BME280;50095;53.336;-1.488;2022-09-30T10:04:52;98567.34;;;18.82;51.18
61914;BME280;50095;53.336;-1.488;2022-09-30T10:07:20;98553.17;;;18.64;51.07
61914;BME280;50095;53.336;-1.488;2022-09-30T10:09:47;98545.71;;;18.73;50.69
61914;BME280;50095;53.336;-1.488;2022-09-30T10:12:25;98535.65;;;18.97;50.49
61914;BME280;50095;53.336;-1.488;2022-09-30T10:14:58;98532.10;;;18.85;50.50
61914;BME280;50095;53.336;-1.488;2022-09-30T10:17:27;98526.35;;;18.73;50.27
61914;BME280;50095;53.336;-1.488;2022-09-30T10:20:00;98528.77;;;18.33;50.85
61914;BME280;50095;53.336;-1.488;2022-09-30T10:22:30;98524.22;;;18.63;50.46
61914;BME280;50095;53.336;-1.488;2022-09-30T10:25:30;98518.33;;;18.79;50.11
61914;BME280;50095;53.336;-1.488;2022-09-30T10:27:59;98523.80;;;18.63;50.83
61914;BME280;50095;53.336;-1.488;2022-09-30T10:30:41;98518.30;;;18.60;50.87
61914;BME280;50095;53.336;-1.488;2022-09-30T10:33:15;98504.63;;;18.19;51.38
61914;BME280;50095;53.336;-1.488;2022-09-30T10:36:05;98493.53;;;18.22;51.72
61914;BME280;50095;53.336;-1.488;2022-09-30T10:38:35;98492.46;;;17.76;52.20
61914;BME280;50095;53.336;-1.488;2022-09-30T10:41:04;98485.57;;;17.68;52.45
61914;BME280;50095;53.336;-1.488;2022-09-30T10:43:38;98480.76;;;17.95;52.31
61914;BME280;50095;53.336;-1.488;2022-09-30T10:46:08;98480.38;;;17.85;52.45
61914;BME280;50095;53.336;-1.488;2022-09-30T10:48:37;98474.33;;;17.88;52.86
61914;BME280;50095;53.336;-1.488;2022-09-30T10:51:21;98471.31;;;17.78;53.20
61914;BME280;50095;53.336;-1.488;2022-09-30T10:53:49;98460.62;;;17.75;52.74
61914;BME280;50095;53.336;-1.488;2022-09-30T10:56:35;98458.50;;;17.53;53.08
61914;BME280;50095;53.336;-1.488;2022-09-30T10:59:05;98451.81;;;17.73;53.19
61914;BME280;50095;53.336;-1.488;2022-09-30T11:01:39;98451.03;;;17.80;53.02
61914;BME280;50095;53.336;-1.488;2022-09-30T11:04:14;98440.50;;;17.91;52.79
61914;BME280;50095;53.336;-1.488;2022-09-30T11:06:46;98422.45;;;17.47;53.14
61914;BME280;50095;53.336;-1.488;2022-09-30T11:09:21;98418.68;;;17.44;52.69
61914;BME280;50095;53.336;-1.488;2022-09-30T11:11:56;98409.20;;;17.82;52.58
61914;BME280;50095;53.336;-1.488;2022-09-30T11:14:31;98407.51;;;18.15;52.17
61914;BME280;50095;53.336;-1.488;2022-09-30T11:17:08;98396.62;;;18.24;51.51
61914;BME280;50095;53.336;-1.488;2022-09-30T11:19:43;98383.14;;;18.69;50.68
61914;BME280;50095;53.336;-1.488;2022-09-30T11:22:27;98372.52;;;17.98;51.46
61914;BME280;50095;53.336;-1.488;2022-09-30T11:24:56;98370.44;;;18.39;51.47
61914;BME280;50095;53.336;-1.488;2022-09-30T11:27:32;98366.09;;;18.34;50.98
61914;BME280;50095;53.336;-1.488;2022-09-30T11:30:08;98363.53;;;18.87;50.70
61914;BME280;50095;53.336;-1.488;2022-09-30T11:32:47;98349.47;;;18.96;50.04
61914;BME280;50095;53.336;-1.488;2022-09-30T11:35:26;98353.82;;;19.28;49.68
61914;BME280;50095;53.336;-1.488;2022-09-30T11:38:09;98342.38;;;18.78;49.74
61914;BME280;50095;53.336;-1.488;2022-09-30T11:40:49;98347.41;;;18.69;49.76
61914;BME280;50095;53.336;-1.488;2022-09-30T11:43:30;98336.07;;;18.28;50.98
61914;BME280;50095;53.336;-1.488;2022-09-30T11:46:29;98331.50;;;18.19;50.78
61914;BME280;50095;53.336;-1.488;2022-09-30T11:49:15;98321.10;;;18.22;50.74
61914;BME280;50095;53.336;-1.488;2022-09-30T11:51:52;98315.82;;;18.53;50.45
61914;BME280;50095;53.336;-1.488;2022-09-30T11:54:36;98315.44;;;18.28;51.44
61914;BME280;50095;53.336;-1.488;2022-09-30T11:57:13;98298.50;;;17.74;51.68
61914;BME280;50095;53.336;-1.488;2022-09-30T11:59:49;98297.85;;;17.70;52.17
61914;BME280;50095;53.336;-1.488;2022-09-30T12:02:26;98290.45;;;18.02;52.06
61914;BME280;50095;53.336;-1.488;2022-09-30T12:05:00;98288.34;;;18.25;51.65
61914;BME280;50095;53.336;-1.488;2022-09-30T12:07:37;98281.11;;;17.97;51.62
61914;BME280;50095;53.336;-1.488;2022-09-30T12:10:16;98274.69;;;17.99;52.04
61914;BME280;50095;53.336;-1.488;2022-09-30T12:12:48;98266.79;;;17.91;51.74
61914;BME280;50095;53.336;-1.488;2022-09-30T12:15:17;98259.06;;;18.20;51.52
61914;BME280;50095;53.336;-1.488;2022-09-30T12:17:49;98254.02;;;18.07;51.39
61914;BME280;50095;53.336;-1.488;2022-09-30T12:20:25;98251.02;;;18.03;51.41
61914;BME280;50095;53.336;-1.488;2022-09-30T12:22:56;98253.80;;;18.20;51.55
61914;BME280;50095;53.336;-1.488;2022-09-30T12:25:30;98247.16;;;18.51;51.41
61914;BME280;50095;53.336;-1.488;2022-09-30T12:28:04;98249.70;;;18.17;51.51
61914;BME280;50095;53.336;-1.488;2022-09-30T12:30:33;98252.47;;;17.94;51.51
61914;BME280;50095;53.336;-1.488;2022-09-30T12:33:48;98243.77;;;18.35;52.04
61914;BME280;50095;53.336;-1.488;2022-09-30T12:36:32;98246.20;;;18.05;51.27
61914;BME280;50095;53.336;-1.488;2022-09-30T12:39:36;98236.97;;;17.93;51.47
61914;BME280;50095;53.336;-1.488;2022-09-30T12:42:22;98234.12;;;17.87;51.08
61914;BME280;50095;53.336;-1.488;2022-09-30T12:47:14;98214.08;;;18.36;51.35
61914;BME280;50095;53.336;-1.488;2022-09-30T12:49:46;98212.38;;;18.10;51.07
61914;BME280;50095;53.336;-1.488;2022-09-30T12:52:17;98204.12;;;18.11;50.65
61914;BME280;50095;53.336;-1.488;2022-09-30T12:54:49;98207.86;;;18.24;50.27
61914;BME280;50095;53.336;-1.488;2022-09-30T12:57:21;98194.90;;;18.68;49.72
61914;BME280;50095;53.336;-1.488;2022-09-30T12:59:53;98178.96;;;18.51;49.61
61914;BME280;50095;53.336;-1.488;2022-09-30T13:02:29;98168.48;;;18.54;49.54
61914;BME280;50095;53.336;-1.488;2022-09-30T13:05:49;98152.08;;;18.70;49.57
61914;BME280;50095;53.336;-1.488;2022-09-30T13:09:29;98141.78;;;18.69;49.12
61914;BME280;50095;53.336;-1.488;2022-09-30T13:12:15;98143.16;;;18.71;49.04
61914;BME280;50095;53.336;-1.488;2022-09-30T13:15:22;98130.57;;;19.09;49.15
61914;BME280;50095;53.336;-1.488;2022-09-30T13:19:17;98117.57;;;18.72;48.77
61914;BME280;50095;53.336;-1.488;2022-09-30T13:21:45;98118.97;;;18.34;49.53